createdAt,value
2022-10-18T00:00:06.662Z,10.30
2022-10-18T00:02:33.656Z,9.40
2022-10-18T00:05:00.383Z,9.10
2022-10-18T00:07:26.827Z,10.10
2022-10-18T00:09:53.243Z,10.30
2022-10-18T00:12:19.823Z,9.40
2022-10-18T00:14:50.836Z,8.30
2022-10-18T00:17:17.455Z,7.50
2022-10-18T00:19:44.237Z,10.30
2022-10-18T00:22:10.645Z,9.80
2022-10-18T00:24:37.140Z,9.50
2022-10-18T00:27:03.702Z,8.70
2022-10-18T00:29:30.119Z,9.20
2022-10-18T00:31:56.564Z,8.90
2022-10-18T00:34:23.147Z,11.10
2022-10-18T00:36:49.530Z,9.50
2022-10-18T00:39:20.032Z,10.20
2022-10-18T00:41:47.234Z,10.60
2022-10-18T00:44:13.609Z,10.40
2022-10-18T00:46:44.202Z,10.10
2022-10-18T00:49:15.573Z,10.30
2022-10-18T00:52:02.415Z,10.40
2022-10-18T00:54:32.502Z,10.00
2022-10-18T00:56:59.542Z,10.90
2022-10-18T00:59:26.698Z,8.50
2022-10-18T01:01:53.616Z,9.90
2022-10-18T01:04:22.129Z,10.40
2022-10-18T01:07:25.391Z,12.70
2022-10-18T01:10:21.217Z,10.40
2022-10-18T01:13:23.395Z,8.70
2022-10-18T01:16:23.439Z,8.80
2022-10-18T01:19:01.654Z,9.20
2022-10-18T01:21:50.544Z,10.80
2022-10-18T01:25:06.028Z,9.60
2022-10-18T01:27:50.383Z,8.80
2022-10-18T01:30:35.884Z,9.60
2022-10-18T01:33:26.974Z,10.50
2022-10-18T01:36:06.303Z,11.40
2022-10-18T01:38:36.078Z,10.70
2022-10-18T01:41:06.473Z,11.30
2022-10-18T01:43:35.466Z,10.40
2022-10-18T01:46:04.592Z,10.40
2022-10-18T01:48:31.909Z,11.80
2022-10-18T01:50:58.407Z,10.00
2022-10-18T01:53:32.632Z,10.20
2022-10-18T01:56:16.000Z,9.80
2022-10-18T01:58:56.161Z,10.40
2022-10-18T02:01:41.125Z,13.30
2022-10-18T02:04:31.817Z,10.90
2022-10-18T02:07:29.390Z,13.10
2022-10-18T02:12:44.125Z,11.60
2022-10-18T02:15:19.447Z,14.50
2022-10-18T02:17:47.070Z,9.90
2022-10-18T02:20:18.793Z,9.40
2022-10-18T02:22:49.186Z,9.80
2022-10-18T02:25:25.006Z,10.70
2022-10-18T02:27:52.383Z,9.80
2022-10-18T02:30:25.589Z,10.00
2022-10-18T02:33:09.668Z,9.30
2022-10-18T02:35:44.534Z,9.40
2022-10-18T02:38:14.205Z,11.30
2022-10-18T02:40:40.761Z,10.50
2022-10-18T02:43:07.384Z,10.00
2022-10-18T02:45:34.037Z,10.60
2022-10-18T02:48:00.449Z,10.60
2022-10-18T02:50:26.974Z,10.20
2022-10-18T02:52:53.377Z,9.60
2022-10-18T02:55:20.049Z,10.20
2022-10-18T02:57:46.530Z,11.80
2022-10-18T03:00:13.965Z,12.60
2022-10-18T03:02:40.433Z,11.30
2022-10-18T03:05:07.182Z,11.80
2022-10-18T03:07:33.847Z,11.50
2022-10-18T03:10:00.396Z,11.00
2022-10-18T03:12:26.826Z,9.40
2022-10-18T03:14:53.287Z,10.60
2022-10-18T03:17:19.717Z,11.60
2022-10-18T03:19:46.170Z,11.30
2022-10-18T03:22:12.558Z,10.10
2022-10-18T03:24:38.960Z,12.20
2022-10-18T03:27:05.429Z,13.30
2022-10-18T03:29:31.957Z,11.60
2022-10-18T03:31:58.353Z,10.20
2022-10-18T03:34:24.854Z,11.00
2022-10-18T03:36:51.301Z,11.80
2022-10-18T03:39:17.799Z,11.50
2022-10-18T03:41:44.205Z,11.50
2022-10-18T03:44:10.620Z,11.00
2022-10-18T03:46:37.067Z,11.90
2022-10-18T03:49:03.704Z,11.00
2022-10-18T03:51:30.131Z,11.10
2022-10-18T03:53:56.510Z,12.50
2022-10-18T03:56:22.955Z,10.20
2022-10-18T03:58:49.321Z,10.80
2022-10-18T04:01:15.848Z,13.40
2022-10-18T04:03:42.262Z,9.70
2022-10-18T04:06:09.943Z,11.90
2022-10-18T04:08:36.473Z,11.30
2022-10-18T04:11:10.837Z,9.30
2022-10-18T04:13:37.564Z,12.30
2022-10-18T04:16:04.096Z,11.00
2022-10-18T04:18:30.654Z,11.50
2022-10-18T04:20:57.157Z,12.10
2022-10-18T04:23:23.825Z,11.10
2022-10-18T04:25:50.809Z,11.80
2022-10-18T04:28:17.284Z,11.70
2022-10-18T04:30:43.714Z,12.00
2022-10-18T04:33:10.072Z,12.10
2022-10-18T04:35:36.668Z,13.10
2022-10-18T04:38:03.058Z,12.20
2022-10-18T04:40:29.420Z,12.40
2022-10-18T04:42:55.845Z,12.10
2022-10-18T04:45:22.243Z,12.90
2022-10-18T04:47:48.677Z,11.20
2022-10-18T04:50:15.170Z,12.00
2022-10-18T04:52:41.710Z,12.10
2022-10-18T04:55:08.763Z,14.50
2022-10-18T04:57:35.248Z,14.80
2022-10-18T05:00:02.101Z,13.20
2022-10-18T05:02:28.560Z,14.70
2022-10-18T05:04:55.107Z,14.30
2022-10-18T05:07:21.480Z,12.80
2022-10-18T05:09:47.991Z,16.70
2022-10-18T05:12:14.454Z,16.30
2022-10-18T05:14:40.891Z,14.20
2022-10-18T05:17:07.286Z,14.00
2022-10-18T05:19:33.894Z,12.90
2022-10-18T05:22:00.294Z,15.80
2022-10-18T05:24:27.819Z,24.70
2022-10-18T05:26:54.474Z,25.40
2022-10-18T05:29:21.164Z,17.00
2022-10-18T05:31:49.321Z,15.50
2022-10-18T05:34:16.830Z,13.60
2022-10-18T05:36:43.936Z,14.40
2022-10-18T05:39:10.403Z,15.10
2022-10-18T05:41:36.918Z,11.40
2022-10-18T05:44:06.124Z,14.10
2022-10-18T05:46:33.009Z,14.50
2022-10-18T05:48:59.576Z,12.10
2022-10-18T05:51:26.060Z,13.80
2022-10-18T05:53:53.082Z,11.40
2022-10-18T05:56:19.546Z,12.40
2022-10-18T05:58:51.609Z,14.00
2022-10-18T06:01:18.841Z,13.10
2022-10-18T06:03:45.336Z,13.70
2022-10-18T06:06:13.808Z,14.80
2022-10-18T06:08:42.910Z,15.60
2022-10-18T06:11:14.422Z,17.60
2022-10-18T06:13:49.962Z,18.80
2022-10-18T06:16:20.422Z,18.40
2022-10-18T06:18:53.151Z,15.30
2022-10-18T06:21:21.059Z,17.70
2022-10-18T06:23:52.840Z,13.60
2022-10-18T06:26:19.957Z,13.90
2022-10-18T06:28:46.434Z,14.90
2022-10-18T06:31:14.391Z,13.00
2022-10-18T06:33:41.573Z,12.80
2022-10-18T06:36:12.799Z,15.20
2022-10-18T06:38:39.712Z,46.00
2022-10-18T06:41:07.539Z,31.90
2022-10-18T06:43:34.452Z,19.10
2022-10-18T06:46:05.062Z,14.00
2022-10-18T06:48:32.173Z,12.00
2022-10-18T06:51:01.959Z,12.50
2022-10-18T06:53:32.696Z,16.00
2022-10-18T06:56:05.629Z,11.80
2022-10-18T06:58:33.374Z,11.70
2022-10-18T07:01:00.000Z,10.30
2022-10-18T07:03:27.269Z,11.30
2022-10-18T07:05:53.724Z,9.40
2022-10-18T07:08:20.106Z,12.60
2022-10-18T07:10:53.674Z,10.10
2022-10-18T07:13:32.060Z,10.70
2022-10-18T07:16:20.786Z,9.50
2022-10-18T07:18:50.824Z,9.70
2022-10-18T07:21:22.132Z,11.30
2022-10-18T07:23:49.642Z,10.10
2022-10-18T07:26:21.562Z,11.10
2022-10-18T07:28:54.541Z,13.10
2022-10-18T07:31:22.774Z,10.60
2022-10-18T07:33:49.354Z,12.60
2022-10-18T07:36:16.147Z,9.70
2022-10-18T07:38:43.081Z,11.00
2022-10-18T07:41:13.315Z,10.50
2022-10-18T07:43:51.168Z,10.40
2022-10-18T07:46:19.554Z,11.00
2022-10-18T07:48:46.055Z,12.90
2022-10-18T07:51:13.928Z,14.00
2022-10-18T07:53:40.804Z,11.70
2022-10-18T07:56:17.245Z,10.70
2022-10-18T07:58:44.956Z,16.30
2022-10-18T08:01:12.990Z,10.40
2022-10-18T08:03:41.698Z,12.50
2022-10-18T08:06:11.248Z,16.20
2022-10-18T08:08:40.456Z,14.10
2022-10-18T08:11:12.185Z,12.00
2022-10-18T08:13:39.116Z,13.70
2022-10-18T08:16:13.210Z,12.70
2022-10-18T08:18:40.463Z,10.70
2022-10-18T08:21:09.957Z,11.60
2022-10-18T08:23:37.611Z,11.90
2022-10-18T08:26:08.674Z,11.60
2022-10-18T08:28:38.664Z,13.00
2022-10-18T08:31:12.889Z,10.70
2022-10-18T08:33:40.416Z,12.40
2022-10-18T08:36:10.405Z,11.80
2022-10-18T08:38:39.633Z,12.30
2022-10-18T08:41:25.885Z,12.90
2022-10-18T08:44:14.353Z,11.30
2022-10-18T08:46:51.076Z,11.20
2022-10-18T08:49:38.336Z,12.60
2022-10-18T08:52:19.170Z,11.10
2022-10-18T08:55:12.457Z,13.30
2022-10-18T08:57:38.837Z,15.10
2022-10-18T09:00:24.004Z,11.30
2022-10-18T09:03:34.320Z,12.20
2022-10-18T09:06:36.127Z,13.00
2022-10-18T09:09:20.276Z,12.60
2022-10-18T09:12:03.806Z,12.40
2022-10-18T09:14:46.007Z,15.60
2022-10-18T09:17:32.594Z,24.60
2022-10-18T09:20:26.232Z,16.50
2022-10-18T09:22:59.009Z,14.00
2022-10-18T09:25:42.909Z,13.40
2022-10-18T09:28:22.722Z,16.10
2022-10-18T09:31:11.226Z,13.20
2022-10-18T09:33:53.991Z,14.00
2022-10-18T09:36:25.881Z,14.20
2022-10-18T09:39:02.198Z,13.10
2022-10-18T09:41:49.649Z,16.40
2022-10-18T09:44:25.145Z,13.20
2022-10-18T09:47:00.417Z,14.30
2022-10-18T09:49:42.375Z,13.60
2022-10-18T09:52:19.361Z,15.60
2022-10-18T09:54:58.143Z,15.30
2022-10-18T09:57:37.532Z,15.30
2022-10-18T10:00:14.091Z,15.50
2022-10-18T10:02:40.595Z,14.80
2022-10-18T10:05:14.248Z,14.10
2022-10-18T10:07:48.377Z,13.10
2022-10-18T10:10:26.795Z,13.90
2022-10-18T10:13:23.015Z,15.80
2022-10-18T10:16:00.473Z,15.10
2022-10-18T10:18:54.415Z,17.90
2022-10-18T10:21:22.345Z,17.50
2022-10-18T10:23:58.533Z,15.70
2022-10-18T10:26:31.977Z,14.40
2022-10-18T10:28:59.037Z,17.30
2022-10-18T10:31:25.440Z,17.60
2022-10-18T10:34:29.088Z,18.80
2022-10-18T10:36:55.501Z,16.80
2022-10-18T10:39:24.878Z,21.80
2022-10-18T10:41:58.926Z,18.50
2022-10-18T10:44:31.412Z,16.20
2022-10-18T10:46:59.189Z,18.80
2022-10-18T10:49:40.382Z,16.30
2022-10-18T10:52:26.786Z,18.10
2022-10-18T10:55:05.887Z,17.80
2022-10-18T10:57:47.236Z,16.70
2022-10-18T11:00:37.547Z,14.10
2022-10-18T11:03:28.455Z,14.90
2022-10-18T11:05:58.793Z,16.70
2022-10-18T11:08:38.129Z,16.10
2022-10-18T11:11:26.822Z,18.40
2022-10-18T11:17:35.861Z,16.60
2022-10-18T11:20:17.202Z,15.10
2022-10-18T11:23:00.787Z,15.20
2022-10-18T11:26:03.451Z,16.20
2022-10-18T11:28:36.069Z,16.70
2022-10-18T11:31:32.751Z,15.60
2022-10-18T11:34:31.271Z,15.20
2022-10-18T11:37:28.642Z,19.10
2022-10-18T11:40:43.284Z,21.70
2022-10-18T11:43:30.086Z,18.70
2022-10-18T11:46:12.248Z,18.20
2022-10-18T11:49:01.893Z,18.10
2022-10-18T11:52:14.615Z,17.10
2022-10-18T11:55:05.044Z,15.50
2022-10-18T11:58:16.325Z,19.70
2022-10-18T12:00:53.385Z,19.80
2022-10-18T12:03:35.250Z,15.50
2022-10-18T12:06:11.980Z,19.20
2022-10-18T12:08:55.663Z,17.00
2022-10-18T12:11:47.414Z,14.90
2022-10-18T12:14:28.265Z,16.80
2022-10-18T12:17:35.863Z,17.70
2022-10-18T12:19:52.634Z,16.00
2022-10-18T12:22:30.060Z,16.50
2022-10-18T12:24:56.773Z,17.50
2022-10-18T12:27:39.621Z,16.70
2022-10-18T12:30:31.784Z,19.40
2022-10-18T12:33:28.784Z,15.30
2022-10-18T12:36:04.695Z,18.90
2022-10-18T12:38:36.574Z,21.50
2022-10-18T12:41:05.428Z,19.50
2022-10-18T12:43:36.899Z,17.40
2022-10-18T12:46:13.502Z,16.80
2022-10-18T12:48:50.422Z,15.70
2022-10-18T12:51:20.864Z,15.70
2022-10-18T12:54:09.111Z,18.00
2022-10-18T12:56:42.505Z,16.10
2022-10-18T12:59:15.475Z,16.40
2022-10-18T13:01:50.870Z,16.70
2022-10-18T13:04:29.731Z,19.30
2022-10-18T13:07:05.054Z,26.60
2022-10-18T13:09:37.865Z,23.00
2022-10-18T13:12:10.308Z,17.60
2022-10-18T13:15:13.472Z,18.80
2022-10-18T13:18:00.377Z,16.00
2022-10-18T13:20:42.778Z,21.00
2022-10-18T13:23:41.515Z,22.70
2022-10-18T13:26:27.726Z,18.30
2022-10-18T13:29:34.587Z,17.60
2022-10-18T13:32:36.869Z,16.20
2022-10-18T13:35:03.592Z,17.60
2022-10-18T13:37:30.724Z,19.40
2022-10-18T13:40:25.128Z,26.90
2022-10-18T13:42:51.546Z,20.30
2022-10-18T13:45:33.204Z,17.10
2022-10-18T13:48:30.539Z,18.10
2022-10-18T13:51:25.139Z,16.40
2022-10-18T13:54:10.122Z,15.80
2022-10-18T13:57:11.124Z,18.00
2022-10-18T14:00:27.331Z,17.70
2022-10-18T14:03:56.414Z,31.80
2022-10-18T14:06:25.230Z,25.90
2022-10-18T14:12:22.851Z,17.80
2022-10-18T14:15:05.189Z,21.00
2022-10-18T14:17:49.606Z,27.00
2022-10-18T14:20:48.991Z,22.10
2022-10-18T14:23:31.275Z,23.40
2022-10-18T14:26:16.256Z,21.20
2022-10-18T14:29:00.291Z,27.60
2022-10-18T14:31:27.999Z,23.90
2022-10-18T14:33:58.759Z,26.90
2022-10-18T14:36:34.456Z,26.60
2022-10-18T14:39:05.105Z,26.60
2022-10-18T14:41:49.188Z,32.40
2022-10-18T14:44:15.586Z,27.20
2022-10-18T14:46:59.407Z,22.20
2022-10-18T14:49:26.887Z,33.40
2022-10-18T14:51:57.372Z,29.40
2022-10-18T14:54:32.383Z,30.80
2022-10-18T14:57:01.914Z,29.70
2022-10-18T14:59:32.497Z,29.60
2022-10-18T15:02:05.114Z,28.80
2022-10-18T15:04:34.401Z,38.50
2022-10-18T15:07:05.026Z,44.70
2022-10-18T15:09:34.968Z,41.60
2022-10-18T15:12:05.722Z,45.70
2022-10-18T15:14:33.781Z,62.90
2022-10-18T15:17:11.573Z,43.60
2022-10-18T15:19:42.844Z,30.40
2022-10-18T15:25:05.618Z,30.10
2022-10-18T15:27:38.090Z,28.70
2022-10-18T15:30:40.989Z,27.00
2022-10-18T15:33:11.529Z,33.00
2022-10-18T15:35:39.685Z,39.40
2022-10-18T15:38:32.072Z,23.80
2022-10-18T15:40:58.757Z,26.30
2022-10-18T15:43:28.070Z,12.60
2022-10-18T15:46:03.329Z,6.10
2022-10-18T15:48:42.010Z,6.80
2022-10-18T15:51:43.838Z,4.60
2022-10-18T15:54:18.965Z,10.10
2022-10-18T15:56:46.018Z,6.80
2022-10-18T15:59:30.837Z,8.20
2022-10-18T16:01:57.617Z,7.00
2022-10-18T16:04:31.301Z,6.40
2022-10-18T16:06:59.213Z,5.20
2022-10-18T16:09:28.880Z,4.80
2022-10-18T16:11:57.453Z,5.70
2022-10-18T16:14:25.972Z,4.40
2022-10-18T16:17:00.721Z,6.70
2022-10-18T16:19:27.226Z,5.00
2022-10-18T16:21:55.209Z,6.00
2022-10-18T16:24:22.938Z,5.00
2022-10-18T16:26:50.001Z,7.00
2022-10-18T16:29:25.792Z,9.60
2022-10-18T16:31:55.425Z,8.80
2022-10-18T16:34:21.826Z,9.50
2022-10-18T16:36:48.212Z,8.50
2022-10-18T16:39:17.821Z,7.80
2022-10-18T16:41:45.355Z,8.30
2022-10-18T16:44:12.225Z,8.70
2022-10-18T16:46:39.184Z,10.20
2022-10-18T16:49:06.618Z,7.80
2022-10-18T16:51:33.681Z,7.40
2022-10-18T16:54:00.085Z,5.80
2022-10-18T16:56:32.115Z,6.20
2022-10-18T16:59:00.233Z,6.40
2022-10-18T17:01:27.329Z,6.30
2022-10-18T17:03:55.171Z,5.20
2022-10-18T17:06:29.498Z,5.90
2022-10-18T17:08:57.797Z,6.00
2022-10-18T17:11:28.301Z,6.40
2022-10-18T17:13:55.494Z,7.10
2022-10-18T17:19:05.562Z,6.90
2022-10-18T17:21:33.836Z,6.50
2022-10-18T17:24:05.782Z,6.40
2022-10-18T17:26:33.775Z,6.50
2022-10-18T17:29:06.965Z,5.50
2022-10-18T17:31:35.607Z,7.00
2022-10-18T17:34:02.655Z,6.90
2022-10-18T17:36:31.697Z,6.90
2022-10-18T17:38:58.929Z,7.30
2022-10-18T17:41:25.845Z,6.60
2022-10-18T17:43:54.537Z,12.80
2022-10-18T17:46:21.097Z,10.30
2022-10-18T17:48:47.679Z,12.80
2022-10-18T17:51:17.208Z,9.60
2022-10-18T17:53:44.597Z,9.10
2022-10-18T17:56:12.886Z,8.10
2022-10-18T17:58:39.889Z,8.30
2022-10-18T18:01:17.897Z,9.70
2022-10-18T18:03:44.916Z,10.30
2022-10-18T18:06:30.807Z,10.60
2022-10-18T18:09:07.303Z,9.80
2022-10-18T18:11:36.910Z,8.80
2022-10-18T18:14:09.073Z,8.70
2022-10-18T18:16:39.425Z,8.20
2022-10-18T18:19:09.954Z,8.00
2022-10-18T18:21:37.825Z,7.80
2022-10-18T18:24:04.630Z,8.30
2022-10-18T18:26:36.047Z,9.70
2022-10-18T18:31:38.875Z,7.20
2022-10-18T18:34:06.751Z,7.40
2022-10-18T18:36:33.577Z,7.30
2022-10-18T18:39:00.107Z,8.40
2022-10-18T18:41:28.723Z,8.60
2022-10-18T18:44:02.649Z,7.10
2022-10-18T18:46:34.187Z,7.30
2022-10-18T18:49:00.657Z,8.00
2022-10-18T18:51:28.929Z,6.60
2022-10-18T18:53:55.381Z,7.80
2022-10-18T18:56:25.639Z,7.50
2022-10-18T18:58:53.500Z,7.00
2022-10-18T19:01:28.199Z,6.10
2022-10-18T19:03:56.752Z,5.70
2022-10-18T19:06:27.746Z,5.00
2022-10-18T19:09:00.630Z,6.40
2022-10-18T19:11:32.529Z,6.20
2022-10-18T19:14:00.366Z,7.40
2022-10-18T19:16:31.981Z,6.80
2022-10-18T19:19:12.993Z,8.40
2022-10-18T19:21:46.261Z,6.10
2022-10-18T19:24:13.907Z,6.80
2022-10-18T19:26:49.925Z,8.00
2022-10-18T19:29:29.919Z,9.80
2022-10-18T19:32:00.162Z,15.20
2022-10-18T19:34:28.977Z,14.10
2022-10-18T19:36:55.910Z,18.30
2022-10-18T19:39:25.890Z,22.50
2022-10-18T19:41:56.126Z,11.70
2022-10-18T19:44:25.069Z,8.30
2022-10-18T19:46:51.646Z,10.20
2022-10-18T19:49:18.381Z,10.40
2022-10-18T19:51:45.145Z,9.70
2022-10-18T19:54:14.254Z,10.80
2022-10-18T19:56:41.835Z,8.30
2022-10-18T19:59:11.093Z,8.90
2022-10-18T20:01:37.859Z,7.60
2022-10-18T20:04:04.872Z,8.60
2022-10-18T20:06:32.295Z,9.90
2022-10-18T20:08:58.781Z,8.80
2022-10-18T20:11:28.632Z,8.50
2022-10-18T20:13:56.492Z,11.10
2022-10-18T20:16:28.605Z,19.30
2022-10-18T20:19:01.679Z,32.70
2022-10-18T20:21:31.507Z,30.90
2022-10-18T20:23:58.018Z,23.40
2022-10-18T20:26:25.684Z,23.00
2022-10-18T20:28:58.139Z,25.70
2022-10-18T20:31:30.804Z,34.90
2022-10-18T20:34:01.527Z,60.90
2022-10-18T20:36:31.435Z,40.10
2022-10-18T20:38:58.803Z,25.60
2022-10-18T20:41:29.380Z,19.20
2022-10-18T20:44:00.472Z,16.40
2022-10-18T20:46:31.691Z,12.80
2022-10-18T20:48:58.419Z,14.50
2022-10-18T20:51:25.616Z,13.80
2022-10-18T20:53:53.582Z,13.00
2022-10-18T20:56:23.810Z,13.40
2022-10-18T20:58:53.812Z,13.80
2022-10-18T21:01:30.076Z,15.10
2022-10-18T21:04:00.702Z,12.40
2022-10-18T21:06:42.531Z,9.60
2022-10-18T21:09:17.954Z,9.20
2022-10-18T21:11:51.345Z,11.00
2022-10-18T21:14:20.945Z,10.30
2022-10-18T21:16:49.630Z,10.50
2022-10-18T21:19:21.637Z,12.30
2022-10-18T21:21:52.577Z,10.30
2022-10-18T21:24:21.122Z,10.00
2022-10-18T21:26:48.260Z,11.20
2022-10-18T21:29:20.756Z,11.30
2022-10-18T21:31:48.611Z,12.10
2022-10-18T21:34:17.417Z,13.00
2022-10-18T21:36:46.840Z,13.10
2022-10-18T21:39:20.345Z,12.70
2022-10-18T21:41:47.373Z,14.30
2022-10-18T21:44:14.762Z,13.80
2022-10-18T21:46:43.103Z,13.30
2022-10-18T21:49:10.964Z,13.40
2022-10-18T21:51:37.930Z,15.50
2022-10-18T21:54:07.088Z,15.10
2022-10-18T21:56:35.386Z,15.80
2022-10-18T21:59:02.689Z,13.90
2022-10-18T22:01:35.874Z,17.60
2022-10-18T22:04:07.445Z,14.30
2022-10-18T22:06:36.536Z,15.20
2022-10-18T22:09:08.422Z,12.40
2022-10-18T22:11:45.541Z,13.60
2022-10-18T22:14:12.387Z,14.80
2022-10-18T22:16:38.830Z,13.10
2022-10-18T22:19:06.763Z,15.00
2022-10-18T22:21:33.453Z,15.90
2022-10-18T22:24:04.829Z,14.00
2022-10-18T22:26:39.936Z,16.20
2022-10-18T22:29:17.550Z,14.30
2022-10-18T22:31:48.911Z,14.80
2022-10-18T22:34:22.721Z,12.60
2022-10-18T22:36:50.075Z,12.60
2022-10-18T22:39:17.753Z,12.90
2022-10-18T22:41:45.148Z,14.30
2022-10-18T22:44:13.494Z,14.20
2022-10-18T22:46:41.865Z,13.90
2022-10-18T22:49:08.987Z,14.70
2022-10-18T22:54:07.300Z,14.40
2022-10-18T22:56:33.712Z,15.00
2022-10-18T22:59:00.266Z,13.90
2022-10-18T23:01:26.808Z,14.40
2022-10-18T23:03:58.821Z,15.30
2022-10-18T23:06:32.730Z,12.20
2022-10-18T23:09:02.504Z,18.40
2022-10-18T23:11:29.490Z,14.40
2022-10-18T23:13:56.411Z,14.70
2022-10-18T23:16:23.862Z,16.00
2022-10-18T23:18:53.844Z,13.60
2022-10-18T23:21:24.074Z,14.50
2022-10-18T23:23:52.553Z,14.30
2022-10-18T23:26:23.237Z,13.70
2022-10-18T23:28:51.937Z,15.10
2022-10-18T23:31:28.758Z,14.20
2022-10-18T23:33:58.271Z,15.00
2022-10-18T23:36:25.361Z,14.10
2022-10-18T23:38:52.162Z,13.40
2022-10-18T23:41:19.480Z,15.00
2022-10-18T23:43:46.875Z,14.30
2022-10-18T23:46:16.376Z,13.70
2022-10-18T23:48:43.300Z,16.90
2022-10-18T23:51:10.444Z,14.90
2022-10-18T23:53:37.802Z,14.00
2022-10-18T23:56:09.404Z,15.10
2022-10-18T23:58:37.292Z,15.10
